sensor_id;sensor_type;location;lat;lon;timestamp;P1;durP1;ratioP1;P2;durP2;ratioP2
76115;SDS011;64847;45.778;12.802;2024-03-06T00:01:31;12.37;;;8.73;;
76115;SDS011;64847;45.778;12.802;2024-03-06T00:03:57;10.43;;;8.23;;
76115;SDS011;64847;45.778;12.802;2024-03-06T00:06:23;10.63;;;8.23;;
76115;SDS011;64847;45.778;12.802;2024-03-06T00:08:49;8.00;;;7.10;;
76115;SDS011;64847;45.778;12.802;2024-03-06T00:11:15;11.17;;;8.00;;
76115;SDS011;64847;45.778;12.802;2024-03-06T00:13:40;8.73;;;7.43;;
76115;SDS011;64847;45.778;12.802;2024-03-06T00:16:05;8.40;;;7.47;;
76115;SDS011;64847;45.778;12.802;2024-03-06T00:18:31;9.53;;;7.67;;
76115;SDS011;64847;45.778;12.802;2024-03-06T00:20:56;7.50;;;6.30;;
76115;SDS011;64847;45.778;12.802;2024-03-06T00:23:22;7.53;;;6.73;;
76115;SDS011;64847;45.778;12.802;2024-03-06T00:25:47;6.10;;;5.67;;
76115;SDS011;64847;45.778;12.802;2024-03-06T00:28:12;8.07;;;5.80;;
76115;SDS011;64847;45.778;12.802;2024-03-06T00:30:38;9.27;;;6.17;;
76115;SDS011;64847;45.778;12.802;2024-03-06T00:33:03;6.70;;;6.10;;
76115;SDS011;64847;45.778;12.802;2024-03-06T00:35:29;7.53;;;6.10;;
76115;SDS011;64847;45.778;12.802;2024-03-06T00:37:54;7.00;;;5.90;;
76115;SDS011;64847;45.778;12.802;2024-03-06T00:40:20;9.33;;;5.67;;
76115;SDS011;64847;45.778;12.802;2024-03-06T00:42:45;6.37;;;5.30;;
76115;SDS011;64847;45.778;12.802;2024-03-06T00:45:10;7.07;;;5.70;;
76115;SDS011;64847;45.778;12.802;2024-03-06T00:47:36;7.33;;;5.00;;
76115;SDS011;64847;45.778;12.802;2024-03-06T00:50:02;6.23;;;5.00;;
76115;SDS011;64847;45.778;12.802;2024-03-06T00:52:28;8.10;;;5.43;;
76115;SDS011;64847;45.778;12.802;2024-03-06T00:54:53;6.80;;;5.20;;
76115;SDS011;64847;45.778;12.802;2024-03-06T00:57:19;5.80;;;5.07;;
76115;SDS011;64847;45.778;12.802;2024-03-06T00:59:44;8.20;;;5.47;;
76115;SDS011;64847;45.778;12.802;2024-03-06T01:02:09;9.00;;;5.57;;
76115;SDS011;64847;45.778;12.802;2024-03-06T01:04:35;10.73;;;6.17;;
76115;SDS011;64847;45.778;12.802;2024-03-06T01:07:01;8.60;;;5.93;;
76115;SDS011;64847;45.778;12.802;2024-03-06T01:09:26;9.77;;;5.73;;
76115;SDS011;64847;45.778;12.802;2024-03-06T01:11:52;7.43;;;5.60;;
76115;SDS011;64847;45.778;12.802;2024-03-06T01:14:17;7.10;;;5.50;;
76115;SDS011;64847;45.778;12.802;2024-03-06T01:16:43;6.17;;;5.13;;
76115;SDS011;64847;45.778;12.802;2024-03-06T01:19:08;7.47;;;5.43;;
76115;SDS011;64847;45.778;12.802;2024-03-06T01:21:34;5.37;;;4.87;;
76115;SDS011;64847;45.778;12.802;2024-03-06T01:24:02;6.27;;;4.37;;
76115;SDS011;64847;45.778;12.802;2024-03-06T01:26:28;5.80;;;4.43;;
76115;SDS011;64847;45.778;12.802;2024-03-06T01:28:53;5.60;;;4.77;;
76115;SDS011;64847;45.778;12.802;2024-03-06T01:31:19;4.87;;;4.47;;
76115;SDS011;64847;45.778;12.802;2024-03-06T01:33:44;5.90;;;4.50;;
76115;SDS011;64847;45.778;12.802;2024-03-06T01:36:10;6.87;;;4.80;;
76115;SDS011;64847;45.778;12.802;2024-03-06T01:38:35;6.13;;;4.40;;
76115;SDS011;64847;45.778;12.802;2024-03-06T01:41:01;9.17;;;5.27;;
76115;SDS011;64847;45.778;12.802;2024-03-06T01:43:26;6.50;;;4.60;;
76115;SDS011;64847;45.778;12.802;2024-03-06T01:45:52;4.60;;;3.90;;
76115;SDS011;64847;45.778;12.802;2024-03-06T01:48:20;7.53;;;4.33;;
76115;SDS011;64847;45.778;12.802;2024-03-06T01:50:47;4.67;;;3.83;;
76115;SDS011;64847;45.778;12.802;2024-03-06T01:53:13;5.17;;;3.67;;
76115;SDS011;64847;45.778;12.802;2024-03-06T01:55:39;7.20;;;3.63;;
76115;SDS011;64847;45.778;12.802;2024-03-06T01:58:05;5.93;;;4.10;;
76115;SDS011;64847;45.778;12.802;2024-03-06T02:00:31;3.87;;;3.57;;
76115;SDS011;64847;45.778;12.802;2024-03-06T02:02:57;6.17;;;3.93;;
76115;SDS011;64847;45.778;12.802;2024-03-06T02:05:22;4.63;;;4.13;;
76115;SDS011;64847;45.778;12.802;2024-03-06T02:07:48;4.30;;;3.67;;
76115;SDS011;64847;45.778;12.802;2024-03-06T02:10:13;7.20;;;4.07;;
76115;SDS011;64847;45.778;12.802;2024-03-06T02:12:39;6.87;;;3.97;;
76115;SDS011;64847;45.778;12.802;2024-03-06T02:15:06;4.90;;;3.93;;
76115;SDS011;64847;45.778;12.802;2024-03-06T02:17:32;5.67;;;4.00;;
76115;SDS011;64847;45.778;12.802;2024-03-06T02:19:59;5.70;;;4.43;;
76115;SDS011;64847;45.778;12.802;2024-03-06T02:22:24;7.03;;;4.17;;
76115;SDS011;64847;45.778;12.802;2024-03-06T02:24:50;5.17;;;4.53;;
76115;SDS011;64847;45.778;12.802;2024-03-06T02:27:15;4.67;;;4.10;;
76115;SDS011;64847;45.778;12.802;2024-03-06T02:29:41;4.90;;;4.10;;
76115;SDS011;64847;45.778;12.802;2024-03-06T02:32:07;6.30;;;4.90;;
76115;SDS011;64847;45.778;12.802;2024-03-06T02:34:33;4.77;;;4.13;;
76115;SDS011;64847;45.778;12.802;2024-03-06T02:36:59;5.00;;;4.60;;
76115;SDS011;64847;45.778;12.802;2024-03-06T02:39:24;5.10;;;4.50;;
76115;SDS011;64847;45.778;12.802;2024-03-06T02:41:50;5.33;;;4.83;;
76115;SDS011;64847;45.778;12.802;2024-03-06T02:44:15;5.90;;;4.90;;
76115;SDS011;64847;45.778;12.802;2024-03-06T02:46:46;6.70;;;4.93;;
76115;SDS011;64847;45.778;12.802;2024-03-06T02:49:12;6.13;;;4.73;;
76115;SDS011;64847;45.778;12.802;2024-03-06T02:51:37;4.97;;;4.57;;
76115;SDS011;64847;45.778;12.802;2024-03-06T02:54:03;5.73;;;4.83;;
76115;SDS011;64847;45.778;12.802;2024-03-06T02:56:29;6.27;;;5.13;;
76115;SDS011;64847;45.778;12.802;2024-03-06T02:58:54;4.93;;;4.47;;
76115;SDS011;64847;45.778;12.802;2024-03-06T03:01:20;7.10;;;5.10;;
76115;SDS011;64847;45.778;12.802;2024-03-06T03:03:45;7.17;;;4.40;;
76115;SDS011;64847;45.778;12.802;2024-03-06T03:06:12;7.43;;;4.90;;
76115;SDS011;64847;45.778;12.802;2024-03-06T03:08:38;6.13;;;4.33;;
76115;SDS011;64847;45.778;12.802;2024-03-06T03:11:04;4.60;;;4.10;;
76115;SDS011;64847;45.778;12.802;2024-03-06T03:13:29;5.53;;;4.17;;
76115;SDS011;64847;45.778;12.802;2024-03-06T03:15:55;5.20;;;4.10;;
76115;SDS011;64847;45.778;12.802;2024-03-06T03:18:21;4.73;;;4.30;;
76115;SDS011;64847;45.778;12.802;2024-03-06T03:20:47;4.53;;;3.87;;
76115;SDS011;64847;45.778;12.802;2024-03-06T03:23:12;4.97;;;4.10;;
76115;SDS011;64847;45.778;12.802;2024-03-06T03:25:40;5.03;;;3.90;;
76115;SDS011;64847;45.778;12.802;2024-03-06T03:28:06;6.90;;;4.47;;
76115;SDS011;64847;45.778;12.802;2024-03-06T03:30:31;6.00;;;4.20;;
76115;SDS011;64847;45.778;12.802;2024-03-06T03:32:57;5.17;;;4.50;;
76115;SDS011;64847;45.778;12.802;2024-03-06T03:35:23;8.57;;;4.67;;
76115;SDS011;64847;45.778;12.802;2024-03-06T03:37:53;5.70;;;4.30;;
76115;SDS011;64847;45.778;12.802;2024-03-06T03:40:20;5.37;;;4.03;;
76115;SDS011;64847;45.778;12.802;2024-03-06T03:42:46;6.37;;;4.10;;
76115;SDS011;64847;45.778;12.802;2024-03-06T03:45:12;4.37;;;3.97;;
76115;SDS011;64847;45.778;12.802;2024-03-06T03:47:38;6.27;;;4.13;;
76115;SDS011;64847;45.778;12.802;2024-03-06T03:50:03;4.27;;;3.73;;
76115;SDS011;64847;45.778;12.802;2024-03-06T03:52:29;5.43;;;3.80;;
76115;SDS011;64847;45.778;12.802;2024-03-06T03:54:55;4.73;;;3.77;;
76115;SDS011;64847;45.778;12.802;2024-03-06T03:57:20;5.83;;;4.37;;
76115;SDS011;64847;45.778;12.802;2024-03-06T03:59:46;4.87;;;4.37;;
76115;SDS011;64847;45.778;12.802;2024-03-06T04:02:11;5.23;;;4.50;;
76115;SDS011;64847;45.778;12.802;2024-03-06T04:04:37;4.33;;;3.93;;
76115;SDS011;64847;45.778;12.802;2024-03-06T04:07:02;6.00;;;4.33;;
76115;SDS011;64847;45.778;12.802;2024-03-06T04:09:28;4.87;;;4.33;;
76115;SDS011;64847;45.778;12.802;2024-03-06T04:11:53;5.17;;;4.27;;
76115;SDS011;64847;45.778;12.802;2024-03-06T04:14:19;4.90;;;4.03;;
76115;SDS011;64847;45.778;12.802;2024-03-06T04:16:47;5.40;;;4.10;;
76115;SDS011;64847;45.778;12.802;2024-03-06T04:19:13;5.17;;;4.23;;
76115;SDS011;64847;45.778;12.802;2024-03-06T04:21:42;6.70;;;4.00;;
76115;SDS011;64847;45.778;12.802;2024-03-06T04:24:07;4.67;;;3.90;;
76115;SDS011;64847;45.778;12.802;2024-03-06T04:26:33;4.50;;;4.10;;
76115;SDS011;64847;45.778;12.802;2024-03-06T04:28:58;4.23;;;3.83;;
76115;SDS011;64847;45.778;12.802;2024-03-06T04:31:24;4.87;;;4.47;;
76115;SDS011;64847;45.778;12.802;2024-03-06T04:33:50;4.43;;;4.03;;
76115;SDS011;64847;45.778;12.802;2024-03-06T04:36:15;6.00;;;4.30;;
76115;SDS011;64847;45.778;12.802;2024-03-06T04:38:40;4.57;;;4.17;;
76115;SDS011;64847;45.778;12.802;2024-03-06T04:41:06;4.60;;;4.20;;
76115;SDS011;64847;45.778;12.802;2024-03-06T04:43:32;5.60;;;4.20;;
76115;SDS011;64847;45.778;12.802;2024-03-06T04:45:57;4.73;;;4.27;;
76115;SDS011;64847;45.778;12.802;2024-03-06T04:48:22;5.67;;;4.47;;
76115;SDS011;64847;45.778;12.802;2024-03-06T04:50:48;5.97;;;4.27;;
76115;SDS011;64847;45.778;12.802;2024-03-06T04:53:14;4.90;;;4.50;;
76115;SDS011;64847;45.778;12.802;2024-03-06T04:55:39;4.80;;;4.30;;
76115;SDS011;64847;45.778;12.802;2024-03-06T04:58:05;5.20;;;4.70;;
76115;SDS011;64847;45.778;12.802;2024-03-06T05:00:31;5.00;;;3.90;;
76115;SDS011;64847;45.778;12.802;2024-03-06T05:02:56;5.03;;;4.43;;
76115;SDS011;64847;45.778;12.802;2024-03-06T05:05:22;5.20;;;4.70;;
76115;SDS011;64847;45.778;12.802;2024-03-06T05:07:48;5.27;;;4.77;;
76115;SDS011;64847;45.778;12.802;2024-03-06T05:10:13;4.60;;;4.20;;
76115;SDS011;64847;45.778;12.802;2024-03-06T05:12:40;4.13;;;3.73;;
76115;SDS011;64847;45.778;12.802;2024-03-06T05:15:05;4.43;;;4.03;;
76115;SDS011;64847;45.778;12.802;2024-03-06T05:20:01;5.13;;;4.00;;
76115;SDS011;64847;45.778;12.802;2024-03-06T05:22:29;5.53;;;4.20;;
76115;SDS011;64847;45.778;12.802;2024-03-06T05:24:54;4.87;;;3.90;;
76115;SDS011;64847;45.778;12.802;2024-03-06T05:27:20;4.77;;;3.77;;
76115;SDS011;64847;45.778;12.802;2024-03-06T05:29:46;4.70;;;3.80;;
76115;SDS011;64847;45.778;12.802;2024-03-06T05:32:11;5.50;;;3.83;;
76115;SDS011;64847;45.778;12.802;2024-03-06T05:34:37;3.87;;;3.57;;
76115;SDS011;64847;45.778;12.802;2024-03-06T05:37:02;4.53;;;4.13;;
76115;SDS011;64847;45.778;12.802;2024-03-06T05:39:29;5.53;;;3.87;;
76115;SDS011;64847;45.778;12.802;2024-03-06T05:41:55;4.43;;;3.90;;
76115;SDS011;64847;45.778;12.802;2024-03-06T05:44:24;4.23;;;3.87;;
76115;SDS011;64847;45.778;12.802;2024-03-06T05:46:50;5.90;;;3.97;;
76115;SDS011;64847;45.778;12.802;2024-03-06T05:49:15;4.30;;;3.80;;
76115;SDS011;64847;45.778;12.802;2024-03-06T05:51:41;4.27;;;3.87;;
76115;SDS011;64847;45.778;12.802;2024-03-06T05:54:06;4.77;;;3.63;;
76115;SDS011;64847;45.778;12.802;2024-03-06T05:56:34;5.03;;;4.53;;
76115;SDS011;64847;45.778;12.802;2024-03-06T05:59:00;5.13;;;4.17;;
76115;SDS011;64847;45.778;12.802;2024-03-06T06:01:29;4.27;;;3.87;;
76115;SDS011;64847;45.778;12.802;2024-03-06T06:03:55;6.43;;;4.10;;
76115;SDS011;64847;45.778;12.802;2024-03-06T06:06:21;7.60;;;4.37;;
76115;SDS011;64847;45.778;12.802;2024-03-06T06:08:46;7.17;;;4.50;;
76115;SDS011;64847;45.778;12.802;2024-03-06T06:11:11;5.07;;;4.33;;
76115;SDS011;64847;45.778;12.802;2024-03-06T06:13:38;4.87;;;4.47;;
76115;SDS011;64847;45.778;12.802;2024-03-06T06:16:04;5.27;;;4.73;;
76115;SDS011;64847;45.778;12.802;2024-03-06T06:18:30;5.30;;;4.50;;
76115;SDS011;64847;45.778;12.802;2024-03-06T06:20:57;6.83;;;4.67;;
76115;SDS011;64847;45.778;12.802;2024-03-06T06:23:25;4.40;;;4.00;;
76115;SDS011;64847;45.778;12.802;2024-03-06T06:25:50;4.57;;;4.17;;
76115;SDS011;64847;45.778;12.802;2024-03-06T06:28:16;4.17;;;3.70;;
76115;SDS011;64847;45.778;12.802;2024-03-06T06:30:42;4.23;;;3.83;;
76115;SDS011;64847;45.778;12.802;2024-03-06T06:33:07;5.50;;;3.47;;
76115;SDS011;64847;45.778;12.802;2024-03-06T06:35:33;3.67;;;3.37;;
76115;SDS011;64847;45.778;12.802;2024-03-06T06:38:02;3.90;;;3.50;;
76115;SDS011;64847;45.778;12.802;2024-03-06T06:40:28;4.23;;;2.90;;
76115;SDS011;64847;45.778;12.802;2024-03-06T06:42:53;3.67;;;3.23;;
76115;SDS011;64847;45.778;12.802;2024-03-06T06:45:19;3.40;;;2.80;;
76115;SDS011;64847;45.778;12.802;2024-03-06T06:47:45;3.80;;;2.90;;
76115;SDS011;64847;45.778;12.802;2024-03-06T06:50:11;3.17;;;2.97;;
76115;SDS011;64847;45.778;12.802;2024-03-06T06:52:40;3.10;;;2.90;;
76115;SDS011;64847;45.778;12.802;2024-03-06T06:55:06;2.83;;;2.60;;
76115;SDS011;64847;45.778;12.802;2024-03-06T06:57:32;3.13;;;2.80;;
76115;SDS011;64847;45.778;12.802;2024-03-06T07:00:01;3.47;;;2.60;;
76115;SDS011;64847;45.778;12.802;2024-03-06T07:02:37;2.60;;;2.40;;
76115;SDS011;64847;45.778;12.802;2024-03-06T07:05:04;3.57;;;2.60;;
76115;SDS011;64847;45.778;12.802;2024-03-06T07:07:30;3.63;;;2.87;;
76115;SDS011;64847;45.778;12.802;2024-03-06T07:09:55;2.50;;;2.30;;
76115;SDS011;64847;45.778;12.802;2024-03-06T07:12:21;4.70;;;2.93;;
76115;SDS011;64847;45.778;12.802;2024-03-06T07:14:47;2.73;;;2.43;;
76115;SDS011;64847;45.778;12.802;2024-03-06T07:17:12;2.93;;;2.10;;
76115;SDS011;64847;45.778;12.802;2024-03-06T07:19:37;2.47;;;2.00;;
76115;SDS011;64847;45.778;12.802;2024-03-06T07:22:04;1.70;;;1.60;;
76115;SDS011;64847;45.778;12.802;2024-03-06T07:24:29;1.63;;;1.53;;
76115;SDS011;64847;45.778;12.802;2024-03-06T07:26:55;1.60;;;1.50;;
76115;SDS011;64847;45.778;12.802;2024-03-06T07:29:20;1.53;;;1.53;;
76115;SDS011;64847;45.778;12.802;2024-03-06T07:31:45;1.70;;;1.60;;
76115;SDS011;64847;45.778;12.802;2024-03-06T07:34:12;2.20;;;2.00;;
76115;SDS011;64847;45.778;12.802;2024-03-06T07:36:38;1.63;;;1.53;;
76115;SDS011;64847;45.778;12.802;2024-03-06T07:39:03;1.77;;;1.67;;
76115;SDS011;64847;45.778;12.802;2024-03-06T07:41:29;2.00;;;1.50;;
76115;SDS011;64847;45.778;12.802;2024-03-06T07:43:57;2.00;;;1.80;;
76115;SDS011;64847;45.778;12.802;2024-03-06T07:46:23;1.87;;;1.60;;
76115;SDS011;64847;45.778;12.802;2024-03-06T07:48:49;2.30;;;2.10;;
76115;SDS011;64847;45.778;12.802;2024-03-06T07:51:16;2.07;;;1.90;;
76115;SDS011;64847;45.778;12.802;2024-03-06T07:53:42;2.60;;;2.40;;
76115;SDS011;64847;45.778;12.802;2024-03-06T07:56:09;3.27;;;2.30;;
76115;SDS011;64847;45.778;12.802;2024-03-06T07:58:36;2.60;;;2.37;;
76115;SDS011;64847;45.778;12.802;2024-03-06T08:01:02;3.43;;;2.80;;
76115;SDS011;64847;45.778;12.802;2024-03-06T08:03:28;3.20;;;2.67;;
76115;SDS011;64847;45.778;12.802;2024-03-06T08:05:53;3.23;;;3.00;;
76115;SDS011;64847;45.778;12.802;2024-03-06T08:08:19;3.03;;;2.83;;
76115;SDS011;64847;45.778;12.802;2024-03-06T08:10:44;3.73;;;3.40;;
76115;SDS011;64847;45.778;12.802;2024-03-06T08:13:11;3.97;;;3.57;;
76115;SDS011;64847;45.778;12.802;2024-03-06T08:15:37;4.10;;;3.80;;
76115;SDS011;64847;45.778;12.802;2024-03-06T08:18:02;4.10;;;3.80;;
76115;SDS011;64847;45.778;12.802;2024-03-06T08:20:30;4.40;;;4.00;;
76115;SDS011;64847;45.778;12.802;2024-03-06T08:22:56;4.00;;;3.63;;
76115;SDS011;64847;45.778;12.802;2024-03-06T08:25:21;5.10;;;4.60;;
76115;SDS011;64847;45.778;12.802;2024-03-06T08:27:47;4.73;;;4.30;;
76115;SDS011;64847;45.778;12.802;2024-03-06T08:30:13;4.60;;;4.17;;
76115;SDS011;64847;45.778;12.802;2024-03-06T08:32:39;4.87;;;4.47;;
76115;SDS011;64847;45.778;12.802;2024-03-06T08:37:36;3.80;;;3.50;;
76115;SDS011;64847;45.778;12.802;2024-03-06T08:40:03;4.13;;;3.83;;
76115;SDS011;64847;45.778;12.802;2024-03-06T08:42:28;3.80;;;3.50;;
76115;SDS011;64847;45.778;12.802;2024-03-06T08:44:54;4.13;;;3.83;;
76115;SDS011;64847;45.778;12.802;2024-03-06T08:47:19;3.77;;;3.53;;
76115;SDS011;64847;45.778;12.802;2024-03-06T08:49:45;3.83;;;3.57;;
76115;SDS011;64847;45.778;12.802;2024-03-06T08:52:10;3.97;;;3.67;;
76115;SDS011;64847;45.778;12.802;2024-03-06T08:54:36;3.73;;;3.43;;
76115;SDS011;64847;45.778;12.802;2024-03-06T08:57:02;4.63;;;4.13;;
76115;SDS011;64847;45.778;12.802;2024-03-06T08:59:29;3.93;;;3.53;;
76115;SDS011;64847;45.778;12.802;2024-03-06T09:01:54;4.10;;;3.70;;
76115;SDS011;64847;45.778;12.802;2024-03-06T09:04:21;4.10;;;3.80;;
76115;SDS011;64847;45.778;12.802;2024-03-06T09:06:47;3.70;;;3.40;;
76115;SDS011;64847;45.778;12.802;2024-03-06T09:09:13;4.13;;;3.83;;
76115;SDS011;64847;45.778;12.802;2024-03-06T09:11:40;3.87;;;3.53;;
76115;SDS011;64847;45.778;12.802;2024-03-06T09:14:07;3.67;;;3.37;;
76115;SDS011;64847;45.778;12.802;2024-03-06T09:16:34;4.17;;;3.87;;
76115;SDS011;64847;45.778;12.802;2024-03-06T09:18:59;4.67;;;4.27;;
76115;SDS011;64847;45.778;12.802;2024-03-06T09:21:25;4.60;;;4.20;;
76115;SDS011;64847;45.778;12.802;2024-03-06T09:23:50;3.80;;;3.50;;
76115;SDS011;64847;45.778;12.802;2024-03-06T09:26:16;4.23;;;3.93;;
76115;SDS011;64847;45.778;12.802;2024-03-06T09:28:42;4.43;;;4.03;;
76115;SDS011;64847;45.778;12.802;2024-03-06T09:31:08;3.80;;;3.50;;
76115;SDS011;64847;45.778;12.802;2024-03-06T09:33:33;4.73;;;4.37;;
76115;SDS011;64847;45.778;12.802;2024-03-06T09:35:59;4.50;;;4.13;;
76115;SDS011;64847;45.778;12.802;2024-03-06T09:38:24;4.93;;;4.43;;
76115;SDS011;64847;45.778;12.802;2024-03-06T09:40:50;5.40;;;5.00;;
76115;SDS011;64847;45.778;12.802;2024-03-06T09:43:16;5.00;;;4.50;;
76115;SDS011;64847;45.778;12.802;2024-03-06T09:45:44;4.80;;;4.40;;
76115;SDS011;64847;45.778;12.802;2024-03-06T09:48:12;5.27;;;4.80;;
76115;SDS011;64847;45.778;12.802;2024-03-06T09:50:37;4.97;;;4.57;;
76115;SDS011;64847;45.778;12.802;2024-03-06T09:53:06;5.30;;;4.90;;
76115;SDS011;64847;45.778;12.802;2024-03-06T09:55:34;5.47;;;4.93;;
76115;SDS011;64847;45.778;12.802;2024-03-06T09:58:00;4.80;;;4.40;;
76115;SDS011;64847;45.778;12.802;2024-03-06T10:00:28;5.20;;;4.70;;
76115;SDS011;64847;45.778;12.802;2024-03-06T10:05:23;5.40;;;5.00;;
76115;SDS011;64847;45.778;12.802;2024-03-06T10:07:50;5.27;;;4.77;;
76115;SDS011;64847;45.778;12.802;2024-03-06T10:10:16;4.70;;;4.30;;
76115;SDS011;64847;45.778;12.802;2024-03-06T10:12:42;5.23;;;4.73;;
76115;SDS011;64847;45.778;12.802;2024-03-06T10:15:09;5.37;;;4.60;;
76115;SDS011;64847;45.778;12.802;2024-03-06T10:17:37;5.10;;;4.70;;
76115;SDS011;64847;45.778;12.802;2024-03-06T10:20:22;4.93;;;4.53;;
76115;SDS011;64847;45.778;12.802;2024-03-06T10:22:49;5.03;;;4.57;;
76115;SDS011;64847;45.778;12.802;2024-03-06T10:25:18;5.13;;;4.73;;
76115;SDS011;64847;45.778;12.802;2024-03-06T10:28:09;5.00;;;4.60;;
76115;SDS011;64847;45.778;12.802;2024-03-06T10:30:36;4.40;;;4.03;;
76115;SDS011;64847;45.778;12.802;2024-03-06T10:33:09;4.87;;;3.83;;
76115;SDS011;64847;45.778;12.802;2024-03-06T10:35:35;3.30;;;3.10;;
76115;SDS011;64847;45.778;12.802;2024-03-06T10:38:04;3.33;;;3.10;;
76115;SDS011;64847;45.778;12.802;2024-03-06T10:40:31;2.80;;;2.53;;
76115;SDS011;64847;45.778;12.802;2024-03-06T10:43:01;3.03;;;2.83;;
76115;SDS011;64847;45.778;12.802;2024-03-06T10:45:39;2.87;;;2.67;;
76115;SDS011;64847;45.778;12.802;2024-03-06T10:48:16;3.17;;;2.97;;
76115;SDS011;64847;45.778;12.802;2024-03-06T10:50:45;3.20;;;2.90;;
76115;SDS011;64847;45.778;12.802;2024-03-06T10:53:12;3.40;;;3.13;;
76115;SDS011;64847;45.778;12.802;2024-03-06T10:55:39;3.07;;;2.87;;
76115;SDS011;64847;45.778;12.802;2024-03-06T10:58:06;3.40;;;3.10;;
76115;SDS011;64847;45.778;12.802;2024-03-06T11:00:38;3.00;;;2.80;;
76115;SDS011;64847;45.778;12.802;2024-03-06T11:03:09;2.90;;;2.70;;
76115;SDS011;64847;45.778;12.802;2024-03-06T11:05:40;3.40;;;3.20;;
76115;SDS011;64847;45.778;12.802;2024-03-06T11:10:39;3.97;;;3.67;;
76115;SDS011;64847;45.778;12.802;2024-03-06T11:13:30;3.80;;;3.60;;
76115;SDS011;64847;45.778;12.802;2024-03-06T11:15:57;4.10;;;3.80;;
76115;SDS011;64847;45.778;12.802;2024-03-06T11:23:29;3.40;;;3.20;;
76115;SDS011;64847;45.778;12.802;2024-03-06T11:26:01;3.40;;;3.10;;
76115;SDS011;64847;45.778;12.802;2024-03-06T11:28:34;2.80;;;2.70;;
76115;SDS011;64847;45.778;12.802;2024-03-06T11:31:11;3.00;;;2.80;;
76115;SDS011;64847;45.778;12.802;2024-03-06T11:33:43;3.00;;;2.80;;
76115;SDS011;64847;45.778;12.802;2024-03-06T11:39:27;2.90;;;2.70;;
76115;SDS011;64847;45.778;12.802;2024-03-06T11:41:48;3.03;;;2.83;;
76115;SDS011;64847;45.778;12.802;2024-03-06T11:44:15;4.30;;;2.87;;
76115;SDS011;64847;45.778;12.802;2024-03-06T11:46:45;2.80;;;2.70;;
76115;SDS011;64847;45.778;12.802;2024-03-06T11:49:15;3.03;;;2.80;;
76115;SDS011;64847;45.778;12.802;2024-03-06T11:51:44;2.57;;;2.43;;
76115;SDS011;64847;45.778;12.802;2024-03-06T11:54:10;2.73;;;2.53;;
76115;SDS011;64847;45.778;12.802;2024-03-06T11:56:36;2.70;;;2.50;;
76115;SDS011;64847;45.778;12.802;2024-03-06T11:59:04;2.70;;;2.50;;
76115;SDS011;64847;45.778;12.802;2024-03-06T12:01:31;2.90;;;2.70;;
76115;SDS011;64847;45.778;12.802;2024-03-06T12:03:57;2.73;;;2.60;;
76115;SDS011;64847;45.778;12.802;2024-03-06T12:06:23;2.50;;;2.33;;
76115;SDS011;64847;45.778;12.802;2024-03-06T12:08:48;3.20;;;3.00;;
76115;SDS011;64847;45.778;12.802;2024-03-06T12:11:14;2.90;;;2.67;;
76115;SDS011;64847;45.778;12.802;2024-03-06T12:13:41;2.50;;;2.40;;
76115;SDS011;64847;45.778;12.802;2024-03-06T12:16:07;2.60;;;2.50;;
76115;SDS011;64847;45.778;12.802;2024-03-06T12:18:33;3.17;;;2.97;;
76115;SDS011;64847;45.778;12.802;2024-03-06T12:21:00;2.73;;;2.53;;
76115;SDS011;64847;45.778;12.802;2024-03-06T12:23:27;3.30;;;3.00;;
76115;SDS011;64847;45.778;12.802;2024-03-06T12:26:06;2.60;;;2.50;;
76115;SDS011;64847;45.778;12.802;2024-03-06T12:28:36;2.90;;;2.70;;
76115;SDS011;64847;45.778;12.802;2024-03-06T12:31:05;2.90;;;2.70;;
76115;SDS011;64847;45.778;12.802;2024-03-06T12:33:32;2.77;;;2.67;;
76115;SDS011;64847;45.778;12.802;2024-03-06T12:36:05;2.47;;;2.27;;
76115;SDS011;64847;45.778;12.802;2024-03-06T12:38:32;2.13;;;2.03;;
76115;SDS011;64847;45.778;12.802;2024-03-06T12:40:58;1.67;;;1.60;;
76115;SDS011;64847;45.778;12.802;2024-03-06T12:43:25;1.63;;;1.60;;
76115;SDS011;64847;45.778;12.802;2024-03-06T12:45:50;1.67;;;1.57;;
76115;SDS011;64847;45.778;12.802;2024-03-06T12:48:19;1.83;;;1.73;;
76115;SDS011;64847;45.778;12.802;2024-03-06T12:50:45;1.97;;;1.87;;
76115;SDS011;64847;45.778;12.802;2024-03-06T12:53:16;1.77;;;1.67;;
76115;SDS011;64847;45.778;12.802;2024-03-06T12:55:42;1.85;;;1.75;;
76115;SDS011;64847;45.778;12.802;2024-03-06T12:58:10;1.95;;;1.85;;
76115;SDS011;64847;45.778;12.802;2024-03-06T13:00:36;1.70;;;1.70;;
76115;SDS011;64847;45.778;12.802;2024-03-06T13:03:01;2.17;;;2.08;;
76115;SDS011;64847;45.778;12.802;2024-03-06T13:05:27;1.48;;;1.42;;
76115;SDS011;64847;45.778;12.802;2024-03-06T13:07:52;1.90;;;1.80;;
76115;SDS011;64847;45.778;12.802;2024-03-06T13:10:18;1.60;;;1.50;;
76115;SDS011;64847;45.778;12.802;2024-03-06T13:12:43;1.90;;;1.80;;
76115;SDS011;64847;45.778;12.802;2024-03-06T13:15:09;1.40;;;1.40;;
76115;SDS011;64847;45.778;12.802;2024-03-06T13:17:35;1.70;;;1.60;;
76115;SDS011;64847;45.778;12.802;2024-03-06T13:20:00;1.58;;;1.58;;
76115;SDS011;64847;45.778;12.802;2024-03-06T13:22:26;1.38;;;1.38;;
76115;SDS011;64847;45.778;12.802;2024-03-06T13:24:51;1.80;;;1.70;;
76115;SDS011;64847;45.778;12.802;2024-03-06T13:27:17;1.42;;;1.33;;
76115;SDS011;64847;45.778;12.802;2024-03-06T13:29:43;1.40;;;1.40;;
76115;SDS011;64847;45.778;12.802;2024-03-06T13:32:08;1.30;;;1.30;;
76115;SDS011;64847;45.778;12.802;2024-03-06T13:34:34;1.52;;;1.52;;
76115;SDS011;64847;45.778;12.802;2024-03-06T13:36:59;1.52;;;1.52;;
76115;SDS011;64847;45.778;12.802;2024-03-06T13:39:25;1.15;;;1.15;;
76115;SDS011;64847;45.778;12.802;2024-03-06T13:41:50;1.20;;;1.20;;
76115;SDS011;64847;45.778;12.802;2024-03-06T13:44:17;1.38;;;1.38;;
76115;SDS011;64847;45.778;12.802;2024-03-06T13:46:43;1.27;;;1.17;;
76115;SDS011;64847;45.778;12.802;2024-03-06T13:49:12;1.10;;;1.10;;
76115;SDS011;64847;45.778;12.802;2024-03-06T13:51:59;1.17;;;1.17;;
76115;SDS011;64847;45.778;12.802;2024-03-06T13:54:24;1.00;;;1.00;;
76115;SDS011;64847;45.778;12.802;2024-03-06T13:56:50;1.03;;;1.03;;
76115;SDS011;64847;45.778;12.802;2024-03-06T13:59:15;1.07;;;1.07;;
76115;SDS011;64847;45.778;12.802;2024-03-06T14:01:41;1.00;;;1.00;;
76115;SDS011;64847;45.778;12.802;2024-03-06T14:04:06;1.10;;;1.10;;
76115;SDS011;64847;45.778;12.802;2024-03-06T14:06:32;0.90;;;0.90;;
76115;SDS011;64847;45.778;12.802;2024-03-06T14:08:58;1.03;;;1.03;;
76115;SDS011;64847;45.778;12.802;2024-03-06T14:11:24;1.07;;;1.00;;
76115;SDS011;64847;45.778;12.802;2024-03-06T14:13:50;1.20;;;1.13;;
76115;SDS011;64847;45.778;12.802;2024-03-06T14:16:16;0.90;;;0.90;;
76115;SDS011;64847;45.778;12.802;2024-03-06T14:18:41;1.00;;;1.00;;
76115;SDS011;64847;45.778;12.802;2024-03-06T14:21:07;0.90;;;0.90;;
76115;SDS011;64847;45.778;12.802;2024-03-06T14:23:32;1.00;;;1.00;;
76115;SDS011;64847;45.778;12.802;2024-03-06T14:25:58;0.90;;;0.90;;
76115;SDS011;64847;45.778;12.802;2024-03-06T14:28:23;1.10;;;1.10;;
76115;SDS011;64847;45.778;12.802;2024-03-06T14:30:49;1.10;;;1.10;;
76115;SDS011;64847;45.778;12.802;2024-03-06T14:33:15;1.07;;;1.00;;
76115;SDS011;64847;45.778;12.802;2024-03-06T14:35:40;0.97;;;0.97;;
76115;SDS011;64847;45.778;12.802;2024-03-06T14:38:06;1.00;;;1.00;;
76115;SDS011;64847;45.778;12.802;2024-03-06T14:40:31;1.00;;;1.00;;
76115;SDS011;64847;45.778;12.802;2024-03-06T14:42:58;1.00;;;1.00;;
76115;SDS011;64847;45.778;12.802;2024-03-06T14:45:24;1.07;;;1.07;;
76115;SDS011;64847;45.778;12.802;2024-03-06T14:47:49;0.90;;;0.90;;